Time;durP1;ratioP1;P1;durP2;ratioP2;P2;SDS_P1;SDS_P2;PMS_P1;PMS_P2;Temp;Humidity;BMP_temperature;BMP_pressure;BME280_temperature;BME280_humidity;BME280_pressure;Samples;Min_cycle;Max_cycle;Signal;HPM_P1;HPM_P2
2023/12/13 00:00:04;;;;;;;14.27;8.23;;;;;;;;;;2085200;28;20033;-76
2023/12/13 00:01:26;;;;;;;15.05;8.77;;;;;;;;;;2080489;28;20468;-76
2023/12/13 00:02:47;;;;;;;10.98;7.93;;;;;;;;;;2086687;28;20408;-75
2023/12/13 00:04:08;;;;;;;12.13;7.70;;;;;;;;;;2084428;28;20036;-76
2023/12/13 00:05:29;;;;;;;13.88;8.38;;;;;;;;;;2085559;28;20037;-76
2023/12/13 00:06:50;;;;;;;11.15;8.77;;;;;;;;;;2078576;28;20436;-76
2023/12/13 00:08:11;;;;;;;11.75;7.90;;;;;;;;;;2086218;28;20044;-76
2023/12/13 00:09:32;;;;;;;12.13;7.67;;;;;;;;;;2081009;28;20489;-76
2023/12/13 00:10:58;;;;;;;16.08;8.40;;;;;;;;;;2086573;28;20441;-76
2023/12/13 00:12:19;;;;;;;16.35;7.88;;;;;;;;;;2082007;28;20561;-76
2023/12/13 00:13:40;;;;;;;10.93;7.93;;;;;;;;;;2081980;28;20033;-76
2023/12/13 00:15:01;;;;;;;20.37;8.67;;;;;;;;;;2079413;28;20025;-76
2023/12/13 00:16:23;;;;;;;16.55;8.00;;;;;;;;;;2074236;28;20857;-77
2023/12/13 00:17:44;;;;;;;15.00;7.70;;;;;;;;;;2076626;28;20021;-76
2023/12/13 00:19:05;;;;;;;15.80;8.30;;;;;;;;;;2082773;28;20112;-76
2023/12/13 00:20:25;;;;;;;11.95;7.72;;;;;;;;;;2088186;28;20040;-76
2023/12/13 00:21:46;;;;;;;16.13;8.35;;;;;;;;;;2080764;28;20029;-76
2023/12/13 00:23:07;;;;;;;15.13;8.40;;;;;;;;;;2075732;28;20051;-76
2023/12/13 00:24:28;;;;;;;14.43;9.05;;;;;;;;;;2080073;28;20033;-76
2023/12/13 00:25:49;;;;;;;14.30;7.78;;;;;;;;;;2082382;28;20037;-76
2023/12/13 00:27:10;;;;;;;12.15;7.93;;;;;;;;;;2084152;28;20033;-76
2023/12/13 00:28:33;;;;;;;12.68;8.30;;;;;;;;;;2080419;28;20029;-76
2023/12/13 00:29:54;;;;;;;11.75;6.82;;;;;;;;;;2072592;28;20054;-77
2023/12/13 00:31:15;;;;;;;10.65;8.00;;;;;;;;;;2081389;28;20029;-76
2023/12/13 00:32:35;;;;;;;10.80;7.47;;;;;;;;;;2087047;28;20433;-76
2023/12/13 00:33:56;;;;;;;11.95;6.97;;;;;;;;;;2077849;28;20037;-76
2023/12/13 00:35:18;;;;;;;13.75;8.00;;;;;;;;;;2076950;28;20033;-77
2023/12/13 00:36:39;;;;;;;15.80;7.55;;;;;;;;;;2083153;28;20469;-76
2023/12/13 00:38:00;;;;;;;14.88;8.15;;;;;;;;;;2078050;28;20086;-76
2023/12/13 00:39:21;;;;;;;15.52;8.07;;;;;;;;;;2086446;28;20512;-76
2023/12/13 00:40:42;;;;;;;16.63;8.20;;;;;;;;;;2079711;28;20048;-76
2023/12/13 00:42:03;;;;;;;17.63;9.07;;;;;;;;;;2078543;28;20029;-75
2023/12/13 00:43:24;;;;;;;13.18;8.02;;;;;;;;;;2075456;28;20643;-75
2023/12/13 00:44:45;;;;;;;11.48;7.82;;;;;;;;;;2076625;28;20030;-75
2023/12/13 00:46:06;;;;;;;13.05;8.40;;;;;;;;;;2086742;28;20818;-76
2023/12/13 00:47:27;;;;;;;10.60;8.00;;;;;;;;;;2079251;28;20026;-76
2023/12/13 00:48:51;;;;;;;11.00;7.88;;;;;;;;;;2072588;28;20045;-76
2023/12/13 00:50:12;;;;;;;12.32;7.90;;;;;;;;;;2073235;28;20088;-76
2023/12/13 00:51:33;;;;;;;14.95;7.90;;;;;;;;;;2073752;28;20037;-76
2023/12/13 00:52:54;;;;;;;13.77;8.52;;;;;;;;;;2084083;28;20033;-76
2023/12/13 00:54:15;;;;;;;13.50;7.68;;;;;;;;;;2084908;28;20090;-76
2023/12/13 00:55:35;;;;;;;11.10;7.70;;;;;;;;;;2078416;28;21315;-76
2023/12/13 00:56:56;;;;;;;14.50;8.57;;;;;;;;;;2080589;28;20091;-76
2023/12/13 00:58:18;;;;;;;14.70;8.93;;;;;;;;;;2077872;28;20516;-76
2023/12/13 00:59:38;;;;;;;12.23;7.53;;;;;;;;;;2083596;28;20041;-77
2023/12/13 01:01:00;;;;;;;15.98;8.90;;;;;;;;;;2079009;28;20076;-76
2023/12/13 01:02:21;;;;;;;14.85;8.70;;;;;;;;;;2078763;28;20103;-76
2023/12/13 01:03:42;;;;;;;11.05;7.80;;;;;;;;;;2084033;28;20397;-76
2023/12/13 01:05:03;;;;;;;14.30;8.68;;;;;;;;;;2077722;28;20121;-76
2023/12/13 01:06:24;;;;;;;10.38;7.47;;;;;;;;;;2082093;28;20037;-76
2023/12/13 01:07:44;;;;;;;15.52;8.65;;;;;;;;;;2085837;28;20504;-76
2023/12/13 01:09:05;;;;;;;12.60;8.15;;;;;;;;;;2088000;28;20036;-76
2023/12/13 01:10:26;;;;;;;16.92;9.05;;;;;;;;;;2078142;28;20053;-76
2023/12/13 01:11:47;;;;;;;14.32;8.93;;;;;;;;;;2083068;28;20036;-76
2023/12/13 01:13:08;;;;;;;11.73;7.90;;;;;;;;;;2078079;28;20324;-76
2023/12/13 01:14:29;;;;;;;12.40;7.60;;;;;;;;;;2077586;28;20033;-76
2023/12/13 01:15:50;;;;;;;14.02;9.15;;;;;;;;;;2077186;28;20037;-76
2023/12/13 01:17:12;;;;;;;12.63;8.57;;;;;;;;;;2084398;28;20388;-76
2023/12/13 01:18:33;;;;;;;12.00;7.80;;;;;;;;;;2088604;28;20032;-77
2023/12/13 01:19:54;;;;;;;14.18;8.55;;;;;;;;;;2078128;28;20030;-76
2023/12/13 01:21:15;;;;;;;10.60;7.75;;;;;;;;;;2081829;28;20038;-77
2023/12/13 01:22:36;;;;;;;17.02;8.48;;;;;;;;;;2087403;28;20053;-76
2023/12/13 01:23:58;;;;;;;14.98;8.35;;;;;;;;;;2080640;28;20486;-76
2023/12/13 01:25:18;;;;;;;17.60;8.57;;;;;;;;;;2085998;28;20123;-75
2023/12/13 01:26:39;;;;;;;14.50;7.75;;;;;;;;;;2081350;28;20040;-76
2023/12/13 01:28:00;;;;;;;15.02;8.75;;;;;;;;;;2076907;28;20493;-76
2023/12/13 01:29:21;;;;;;;12.75;8.55;;;;;;;;;;2075636;28;20041;-76
2023/12/13 01:30:42;;;;;;;14.77;8.27;;;;;;;;;;2084324;28;20112;-75
2023/12/13 01:32:03;;;;;;;13.15;7.88;;;;;;;;;;2077076;28;20508;-75
2023/12/13 01:33:24;;;;;;;16.63;7.95;;;;;;;;;;2083814;28;20075;-75
2023/12/13 01:34:45;;;;;;;18.90;7.85;;;;;;;;;;2080156;28;20037;-76
2023/12/13 01:36:06;;;;;;;11.65;7.57;;;;;;;;;;2087020;28;20033;-75
2023/12/13 01:37:27;;;;;;;11.25;8.13;;;;;;;;;;2085590;28;20032;-75
2023/12/13 01:38:48;;;;;;;11.48;7.78;;;;;;;;;;2078179;28;20567;-75
2023/12/13 01:40:09;;;;;;;15.43;8.23;;;;;;;;;;2083550;28;20045;-75
2023/12/13 01:41:30;;;;;;;15.80;8.18;;;;;;;;;;2081789;28;20034;-76
2023/12/13 01:42:51;;;;;;;16.27;7.68;;;;;;;;;;2081241;28;20033;-76
2023/12/13 01:44:12;;;;;;;15.10;8.45;;;;;;;;;;2092809;28;20445;-75
2023/12/13 01:45:33;;;;;;;13.13;8.25;;;;;;;;;;2075008;28;20045;-76
2023/12/13 01:46:53;;;;;;;13.65;8.23;;;;;;;;;;2083304;28;20095;-76
2023/12/13 01:48:14;;;;;;;12.05;7.03;;;;;;;;;;2089610;28;20339;-76
2023/12/13 01:49:35;;;;;;;13.75;8.40;;;;;;;;;;2088409;28;20406;-75
2023/12/13 01:50:57;;;;;;;12.73;7.95;;;;;;;;;;2083332;28;20033;-76
2023/12/13 01:52:17;;;;;;;14.93;6.95;;;;;;;;;;2077209;28;20033;-76
2023/12/13 01:53:39;;;;;;;10.07;7.80;;;;;;;;;;2085621;28;20037;-75
2023/12/13 01:55:01;;;;;;;14.70;8.15;;;;;;;;;;2081097;28;20037;-75
2023/12/13 01:56:22;;;;;;;15.00;7.72;;;;;;;;;;2085826;28;20480;-76
2023/12/13 01:57:43;;;;;;;12.50;7.80;;;;;;;;;;2089151;28;20037;-74
2023/12/13 01:59:04;;;;;;;13.20;7.88;;;;;;;;;;2078924;28;20353;-74
2023/12/13 02:00:25;;;;;;;15.52;9.00;;;;;;;;;;2084173;28;20412;-74
2023/12/13 02:01:46;;;;;;;11.50;8.75;;;;;;;;;;2076597;28;20401;-74
2023/12/13 02:03:08;;;;;;;19.55;9.07;;;;;;;;;;2078978;28;20041;-74
2023/12/13 02:04:29;;;;;;;14.85;8.85;;;;;;;;;;2081574;28;20033;-74
2023/12/13 02:05:51;;;;;;;14.57;9.30;;;;;;;;;;2087821;28;20029;-75
2023/12/13 02:07:13;;;;;;;16.85;9.23;;;;;;;;;;2084963;28;20035;-74
2023/12/13 02:08:34;;;;;;;;;;;;;;;;;;2081406;28;20234;-74
2023/12/13 02:09:55;;;;;;;16.98;8.85;;;;;;;;;;2083853;28;19912;-74
2023/12/13 02:11:16;;;;;;;14.32;8.65;;;;;;;;;;2085877;28;20041;-74
2023/12/13 02:12:37;;;;;;;17.02;8.93;;;;;;;;;;2076859;28;20033;-75
2023/12/13 02:13:58;;;;;;;14.52;9.05;;;;;;;;;;2086569;28;20036;-74
2023/12/13 02:15:19;;;;;;;16.92;9.43;;;;;;;;;;2077460;28;20034;-74
2023/12/13 02:16:40;;;;;;;13.30;8.45;;;;;;;;;;2084306;28;20480;-73
2023/12/13 02:18:02;;;;;;;18.85;9.25;;;;;;;;;;2083878;28;20037;-75
2023/12/13 02:19:23;;;;;;;17.98;8.35;;;;;;;;;;2087438;28;20083;-75
2023/12/13 02:20:44;;;;;;;20.63;8.98;;;;;;;;;;2084738;28;20500;-74
2023/12/13 02:22:05;;;;;;;15.35;8.52;;;;;;;;;;2085795;28;20041;-74
2023/12/13 02:23:26;;;;;;;15.18;8.60;;;;;;;;;;2087191;28;20086;-74
2023/12/13 02:24:49;;;;;;;13.23;8.05;;;;;;;;;;2079751;28;20029;-75
2023/12/13 02:26:11;;;;;;;17.70;8.90;;;;;;;;;;2086148;28;20029;-74
2023/12/13 02:27:33;;;;;;;15.77;8.15;;;;;;;;;;2079493;28;20425;-74
2023/12/13 02:28:54;;;;;;;13.63;8.75;;;;;;;;;;2081284;28;20037;-74
2023/12/13 02:30:15;;;;;;;20.15;10.23;;;;;;;;;;2081365;28;20060;-75
2023/12/13 02:31:36;;;;;;;16.05;8.68;;;;;;;;;;2085380;28;20094;-74
2023/12/13 02:32:57;;;;;;;23.92;9.80;;;;;;;;;;2077370;28;20029;-74
2023/12/13 02:34:18;;;;;;;21.27;9.35;;;;;;;;;;2081901;28;20598;-75
2023/12/13 02:35:39;;;;;;;19.95;9.38;;;;;;;;;;2074626;28;20030;-74
2023/12/13 02:37:02;;;;;;;14.75;9.15;;;;;;;;;;2082295;28;20036;-74
2023/12/13 02:38:23;;;;;;;22.25;9.43;;;;;;;;;;2080948;28;20037;-76
2023/12/13 02:39:44;;;;;;;16.25;9.23;;;;;;;;;;2083742;28;20481;-74
2023/12/13 02:41:05;;;;;;;17.55;10.02;;;;;;;;;;2076535;28;20037;-75
2023/12/13 02:42:26;;;;;;;19.15;9.23;;;;;;;;;;2079454;28;20038;-75
2023/12/13 02:43:46;;;;;;;24.27;8.85;;;;;;;;;;2085850;28;20047;-75
2023/12/13 02:45:10;;;;;;;20.88;10.32;;;;;;;;;;2078949;28;20505;-75
2023/12/13 02:46:31;;;;;;;16.33;9.68;;;;;;;;;;2083036;28;20087;-75
2023/12/13 02:47:53;;;;;;;16.92;8.85;;;;;;;;;;2078109;28;20342;-75
2023/12/13 02:49:13;;;;;;;18.30;9.75;;;;;;;;;;2083662;28;20033;-74
2023/12/13 02:50:36;;;;;;;21.00;9.25;;;;;;;;;;2085922;28;20045;-75
2023/12/13 02:51:57;;;;;;;17.15;9.30;;;;;;;;;;2074850;28;20025;-75
2023/12/13 02:53:19;;;;;;;14.05;9.05;;;;;;;;;;2080038;28;20080;-75
2023/12/13 02:54:40;;;;;;;20.73;9.40;;;;;;;;;;2079608;28;20022;-75
2023/12/13 02:56:01;;;;;;;20.45;9.52;;;;;;;;;;2079560;28;20025;-75
2023/12/13 02:57:21;;;;;;;15.60;9.07;;;;;;;;;;2085354;28;20353;-75
2023/12/13 02:58:42;;;;;;;20.35;9.05;;;;;;;;;;2076704;28;20033;-75
2023/12/13 03:00:04;;;;;;;22.70;9.70;;;;;;;;;;2077641;28;20034;-75
2023/12/13 03:01:25;;;;;;;20.73;9.95;;;;;;;;;;2087415;28;20037;-75
2023/12/13 03:02:46;;;;;;;20.08;10.30;;;;;;;;;;2078485;28;20029;-75
2023/12/13 03:04:07;;;;;;;16.48;8.60;;;;;;;;;;2078577;28;20496;-75
2023/12/13 03:05:28;;;;;;;22.27;9.73;;;;;;;;;;2082993;28;20029;-75
2023/12/13 03:06:48;;;;;;;17.15;9.30;;;;;;;;;;2077591;28;20112;-75
2023/12/13 03:08:09;;;;;;;15.45;9.23;;;;;;;;;;2077668;28;20064;-75
2023/12/13 03:09:30;;;;;;;20.20;9.93;;;;;;;;;;2083526;28;20037;-75
2023/12/13 03:10:51;;;;;;;18.45;9.50;;;;;;;;;;2083656;28;20558;-75
2023/12/13 03:12:12;;;;;;;18.58;9.20;;;;;;;;;;2077612;28;20029;-76
2023/12/13 03:13:34;;;;;;;15.55;10.40;;;;;;;;;;2079725;28;20033;-75
2023/12/13 03:14:55;;;;;;;17.05;9.32;;;;;;;;;;2085977;28;20029;-75
2023/12/13 03:16:16;;;;;;;18.35;9.93;;;;;;;;;;2077490;28;20041;-75
2023/12/13 03:17:36;;;;;;;20.90;9.60;;;;;;;;;;2080661;28;20117;-76
2023/12/13 03:18:57;;;;;;;26.60;10.13;;;;;;;;;;2078818;28;20421;-75
2023/12/13 03:20:18;;;;;;;14.18;9.75;;;;;;;;;;2083539;28;20095;-76
2023/12/13 03:21:39;;;;;;;18.80;10.15;;;;;;;;;;2085992;28;20025;-75
2023/12/13 03:23:03;;;;;;;23.13;9.43;;;;;;;;;;2086341;28;20057;-75
2023/12/13 03:24:24;;;;;;;15.65;9.73;;;;;;;;;;2074967;28;20049;-75
2023/12/13 03:25:44;;;;;;;19.45;10.05;;;;;;;;;;2075864;28;20434;-75
2023/12/13 03:27:05;;;;;;;24.85;10.52;;;;;;;;;;2085409;28;20029;-76
2023/12/13 03:28:26;;;;;;;17.42;9.50;;;;;;;;;;2083349;28;20044;-76
2023/12/13 03:29:48;;;;;;;19.20;10.48;;;;;;;;;;2087751;28;20397;-75
2023/12/13 03:31:09;;;;;;;17.48;9.93;;;;;;;;;;2086661;28;20041;-75
2023/12/13 03:32:30;;;;;;;19.55;9.73;;;;;;;;;;2079581;28;20574;-76
2023/12/13 03:33:51;;;;;;;19.20;10.45;;;;;;;;;;2074407;28;20049;-75
2023/12/13 03:35:11;;;;;;;21.13;10.23;;;;;;;;;;2078707;28;20041;-76
2023/12/13 03:36:32;;;;;;;17.48;9.98;;;;;;;;;;2079246;28;20485;-75
2023/12/13 03:37:53;;;;;;;19.95;9.55;;;;;;;;;;2085379;28;20037;-76
2023/12/13 03:39:14;;;;;;;18.05;9.65;;;;;;;;;;2089381;28;20033;-75
2023/12/13 03:40:35;;;;;;;19.58;10.02;;;;;;;;;;2088564;28;20033;-75
2023/12/13 03:41:56;;;;;;;20.75;9.95;;;;;;;;;;2081003;28;20037;-75
2023/12/13 03:43:17;;;;;;;17.80;9.48;;;;;;;;;;2085933;28;20040;-75
2023/12/13 03:44:38;;;;;;;17.80;9.70;;;;;;;;;;2078600;28;20492;-75
2023/12/13 03:45:59;;;;;;;24.83;10.48;;;;;;;;;;2085653;28;20037;-76
2023/12/13 03:47:20;;;;;;;18.27;10.15;;;;;;;;;;2082235;28;20166;-75
2023/12/13 03:48:41;;;;;;;18.33;9.50;;;;;;;;;;2082494;28;20026;-75
2023/12/13 03:50:02;;;;;;;19.33;10.57;;;;;;;;;;2079008;28;20042;-76
2023/12/13 03:51:23;;;;;;;17.33;9.45;;;;;;;;;;2085369;28;20048;-75
2023/12/13 03:52:44;;;;;;;17.52;10.05;;;;;;;;;;2089771;28;20033;-75
2023/12/13 03:54:05;;;;;;;17.42;9.63;;;;;;;;;;2086387;28;20025;-75
2023/12/13 03:55:26;;;;;;;17.48;8.57;;;;;;;;;;2085001;28;20371;-74
2023/12/13 03:56:46;;;;;;;13.80;9.10;;;;;;;;;;2081924;28;20025;-75
2023/12/13 03:58:07;;;;;;;19.48;9.57;;;;;;;;;;2081629;28;20034;-75
2023/12/13 03:59:29;;;;;;;23.42;9.70;;;;;;;;;;2087206;28;20029;-75
2023/12/13 04:00:50;;;;;;;21.40;9.13;;;;;;;;;;2088092;28;20041;-76
2023/12/13 04:02:11;;;;;;;17.67;9.63;;;;;;;;;;2082190;28;20425;-75
2023/12/13 04:03:33;;;;;;;16.42;9.77;;;;;;;;;;2072602;28;20121;-75
2023/12/13 04:04:54;;;;;;;22.52;10.00;;;;;;;;;;2081751;28;20496;-76
2023/12/13 04:06:15;;;;;;;16.65;9.27;;;;;;;;;;2091095;28;20041;-76
2023/12/13 04:07:35;;;;;;;19.60;9.50;;;;;;;;;;2088931;28;20488;-75
2023/12/13 04:08:56;;;;;;;13.85;9.15;;;;;;;;;;2085615;28;20041;-75
2023/12/13 04:10:19;;;;;;;20.35;9.93;;;;;;;;;;2080569;28;20095;-76
2023/12/13 04:11:39;;;;;;;;;;;;;;;;;;2081539;28;20546;-75
2023/12/13 04:13:00;;;;;;;23.75;10.43;;;;;;;;;;2083803;28;19909;-75
2023/12/13 04:14:21;;;;;;;14.90;9.35;;;;;;;;;;2089461;28;20036;-75
2023/12/13 04:15:42;;;;;;;19.15;10.15;;;;;;;;;;2088217;28;20025;-75
2023/12/13 04:17:04;;;;;;;19.02;9.57;;;;;;;;;;2077954;28;20064;-77
2023/12/13 04:18:24;;;;;;;27.40;10.30;;;;;;;;;;2073730;28;20041;-75
2023/12/13 04:19:45;;;;;;;21.35;9.82;;;;;;;;;;2074716;28;20484;-76
2023/12/13 04:21:06;;;;;;;17.58;11.32;;;;;;;;;;2083460;28;20055;-76
2023/12/13 04:22:27;;;;;;;21.90;10.00;;;;;;;;;;2076331;28;20029;-76
2023/12/13 04:23:48;;;;;;;21.00;10.25;;;;;;;;;;2076589;28;20041;-75
2023/12/13 04:25:09;;;;;;;18.38;9.07;;;;;;;;;;2076189;28;20037;-74
2023/12/13 04:26:30;;;;;;;22.02;9.77;;;;;;;;;;2082496;28;20029;-76
2023/12/13 04:27:51;;;;;;;19.98;9.20;;;;;;;;;;2089958;28;20408;-75
2023/12/13 04:29:11;;;;;;;21.27;9.32;;;;;;;;;;2090368;28;20045;-76
2023/12/13 04:30:32;;;;;;;18.88;9.85;;;;;;;;;;2086100;28;20052;-76
2023/12/13 04:31:53;;;;;;;20.67;10.10;;;;;;;;;;2076084;28;20533;-76
2023/12/13 04:33:18;;;;;;;27.70;10.43;;;;;;;;;;2081525;28;20111;-75
2023/12/13 04:34:39;;;;;;;20.15;9.40;;;;;;;;;;2076982;28;20037;-75
2023/12/13 04:36:00;;;;;;;21.70;9.57;;;;;;;;;;2081776;28;20029;-75
2023/12/13 04:37:21;;;;;;;19.77;9.90;;;;;;;;;;2085809;28;20052;-76
2023/12/13 04:38:42;;;;;;;19.27;10.93;;;;;;;;;;2083581;28;20028;-75
2023/12/13 04:40:04;;;;;;;15.27;9.35;;;;;;;;;;2079042;28;20104;-75
2023/12/13 04:41:25;;;;;;;17.77;9.90;;;;;;;;;;2082055;28;20634;-75
2023/12/13 04:42:45;;;;;;;20.23;8.27;;;;;;;;;;2081739;28;20954;-75
2023/12/13 04:44:08;;;;;;;21.73;10.35;;;;;;;;;;2083919;28;20098;-75
2023/12/13 04:45:29;;;;;;;;;;;;;;;;;;2088213;28;20041;-75
2023/12/13 04:46:49;;;;;;;22.27;10.57;;;;;;;;;;2079502;28;19909;-75
2023/12/13 04:48:10;;;;;;;23.70;9.13;;;;;;;;;;2075119;28;20394;-74
2023/12/13 04:49:31;;;;;;;24.23;10.48;;;;;;;;;;2074314;28;20033;-74
2023/12/13 04:50:52;;;;;;;22.17;9.82;;;;;;;;;;2077521;28;20041;-75
2023/12/13 04:52:13;;;;;;;25.33;9.63;;;;;;;;;;2083667;28;20025;-75
2023/12/13 04:53:34;;;;;;;19.38;9.90;;;;;;;;;;2080488;28;20493;-75
2023/12/13 04:54:55;;;;;;;22.47;10.13;;;;;;;;;;2075077;28;20033;-75
2023/12/13 04:56:16;;;;;;;20.67;9.23;;;;;;;;;;2088478;28;20029;-75
2023/12/13 04:57:37;;;;;;;20.73;10.82;;;;;;;;;;2083270;28;20053;-74
2023/12/13 04:58:58;;;;;;;17.52;9.07;;;;;;;;;;2086968;28;20045;-75
2023/12/13 05:00:19;;;;;;;20.63;8.57;;;;;;;;;;2090297;28;20389;-76
2023/12/13 05:01:40;;;;;;;21.30;9.43;;;;;;;;;;2080993;28;20044;-76
2023/12/13 05:03:01;;;;;;;21.85;9.07;;;;;;;;;;2079805;28;20109;-75
2023/12/13 05:04:22;;;;;;;20.45;8.95;;;;;;;;;;2077064;28;20041;-77
2023/12/13 05:05:43;;;;;;;22.13;9.48;;;;;;;;;;2075383;28;20037;-77
2023/12/13 05:07:05;;;;;;;13.23;9.37;;;;;;;;;;2074768;28;20041;-77
2023/12/13 05:08:26;;;;;;;18.27;9.55;;;;;;;;;;2079171;28;20064;-74
2023/12/13 05:09:47;;;;;;;16.55;10.32;;;;;;;;;;2075191;28;20029;-74
2023/12/13 05:11:08;;;;;;;22.00;9.73;;;;;;;;;;2083618;28;20099;-75
2023/12/13 05:12:29;;;;;;;23.55;10.55;;;;;;;;;;2078050;28;20088;-75
2023/12/13 05:13:50;;;;;;;22.17;10.25;;;;;;;;;;2080764;28;20481;-74
2023/12/13 05:15:11;;;;;;;22.33;9.60;;;;;;;;;;2085480;28;20079;-74
2023/12/13 05:16:32;;;;;;;27.98;11.00;;;;;;;;;;2087066;28;20079;-75
2023/12/13 05:17:53;;;;;;;20.08;9.27;;;;;;;;;;2079082;28;20051;-75
2023/12/13 05:19:14;;;;;;;26.92;9.77;;;;;;;;;;2080092;28;20241;-75
2023/12/13 05:20:35;;;;;;;27.20;9.18;;;;;;;;;;2078647;28;20386;-75
2023/12/13 05:21:56;;;;;;;27.45;9.70;;;;;;;;;;2072631;28;20099;-75
2023/12/13 05:23:17;;;;;;;21.95;9.82;;;;;;;;;;2083653;28;20041;-74
2023/12/13 05:24:37;;;;;;;23.42;9.60;;;;;;;;;;2079115;28;20029;-75
2023/12/13 05:25:58;;;;;;;19.05;9.55;;;;;;;;;;2084791;28;20032;-75
2023/12/13 05:27:19;;;;;;;23.58;9.45;;;;;;;;;;2086997;28;20025;-76
2023/12/13 05:28:40;;;;;;;25.10;10.88;;;;;;;;;;2079383;28;20033;-75
2023/12/13 05:30:01;;;;;;;20.02;8.45;;;;;;;;;;2084371;28;20065;-76
2023/12/13 05:31:23;;;;;;;19.35;9.32;;;;;;;;;;2072587;28;20486;-77
2023/12/13 05:32:43;;;;;;;25.83;10.70;;;;;;;;;;2075748;28;20041;-77
2023/12/13 05:34:04;;;;;;;26.08;9.82;;;;;;;;;;2076730;28;20029;-76
2023/12/13 05:35:25;;;;;;;23.08;10.48;;;;;;;;;;2083676;28;20029;-75
2023/12/13 05:36:47;;;;;;;15.93;9.60;;;;;;;;;;2087608;28;20534;-75
2023/12/13 05:38:08;;;;;;;24.77;10.18;;;;;;;;;;2077594;28;20037;-76
2023/12/13 05:39:29;;;;;;;19.20;9.25;;;;;;;;;;2086986;28;20481;-76
2023/12/13 05:40:50;;;;;;;19.42;8.93;;;;;;;;;;2091923;28;20032;-76
2023/12/13 05:42:11;;;;;;;23.40;10.27;;;;;;;;;;2081014;28;20040;-76
2023/12/13 05:43:35;;;;;;;22.80;9.38;;;;;;;;;;2079786;28;20461;-76
2023/12/13 05:44:56;;;;;;;25.45;9.65;;;;;;;;;;2086234;28;20086;-75
2023/12/13 05:46:17;;;;;;;31.63;11.88;;;;;;;;;;2076832;28;20029;-76
2023/12/13 05:47:38;;;;;;;19.13;9.38;;;;;;;;;;2082389;28;20028;-75
2023/12/13 05:49:03;;;;;;;22.45;9.23;;;;;;;;;;2081048;28;20033;-74
2023/12/13 05:50:24;;;;;;;24.00;8.90;;;;;;;;;;2079878;28;20038;-76
2023/12/13 05:51:45;;;;;;;24.50;9.88;;;;;;;;;;2076819;28;20449;-76
2023/12/13 05:53:06;;;;;;;29.08;10.32;;;;;;;;;;2077795;28;20033;-76
2023/12/13 05:54:27;;;;;;;23.60;9.85;;;;;;;;;;2080764;28;20113;-76
2023/12/13 05:55:48;;;;;;;24.17;9.65;;;;;;;;;;2080509;28;20040;-76
2023/12/13 05:57:09;;;;;;;23.05;9.45;;;;;;;;;;2078637;28;20025;-76
2023/12/13 05:58:29;;;;;;;22.05;9.57;;;;;;;;;;2077759;28;20034;-75
2023/12/13 05:59:50;;;;;;;19.70;9.13;;;;;;;;;;2075422;28;20014;-76
2023/12/13 06:01:11;;;;;;;30.10;12.70;;;;;;;;;;2073774;28;20433;-76
2023/12/13 06:02:32;;;;;;;27.73;10.50;;;;;;;;;;2076820;28;20033;-76
2023/12/13 06:03:53;;;;;;;23.05;9.57;;;;;;;;;;2082190;28;20032;-75
2023/12/13 06:05:14;;;;;;;20.25;10.15;;;;;;;;;;2079646;28;20583;-75
2023/12/13 06:06:35;;;;;;;18.15;9.70;;;;;;;;;;2078756;28;20025;-75
2023/12/13 06:07:56;;;;;;;22.98;10.20;;;;;;;;;;2078453;28;20412;-75
2023/12/13 06:09:18;;;;;;;27.30;8.95;;;;;;;;;;2085867;28;20064;-75
2023/12/13 06:10:39;;;;;;;23.65;9.63;;;;;;;;;;2089114;28;20032;-76
2023/12/13 06:12:00;;;;;;;19.88;10.15;;;;;;;;;;2082474;28;20037;-76
2023/12/13 06:13:20;;;;;;;16.20;9.48;;;;;;;;;;2080180;28;20025;-76
2023/12/13 06:14:41;;;;;;;20.88;9.07;;;;;;;;;;2086475;28;20021;-76
2023/12/13 06:16:02;;;;;;;23.70;9.68;;;;;;;;;;2087749;28;20021;-76
2023/12/13 06:17:23;;;;;;;31.42;11.02;;;;;;;;;;2087232;28;20040;-76
2023/12/13 06:18:44;;;;;;;23.20;9.48;;;;;;;;;;2075791;28;20040;-75
2023/12/13 06:20:06;;;;;;;23.85;9.85;;;;;;;;;;2086103;28;20467;-75
2023/12/13 06:21:27;;;;;;;25.75;9.68;;;;;;;;;;2084102;28;20471;-75
2023/12/13 06:22:47;;;;;;;22.00;10.75;;;;;;;;;;2087771;28;20037;-76
2023/12/13 06:24:08;;;;;;;21.42;10.60;;;;;;;;;;2081384;28;20032;-76
2023/12/13 06:25:29;;;;;;;23.73;11.68;;;;;;;;;;2074159;28;20406;-75
2023/12/13 06:26:50;;;;;;;22.98;10.25;;;;;;;;;;2082264;28;20041;-75
2023/12/13 06:28:11;;;;;;;16.38;9.43;;;;;;;;;;2078919;28;20044;-75
2023/12/13 06:29:32;;;;;;;23.83;9.95;;;;;;;;;;2084676;28;20029;-75
2023/12/13 06:30:53;;;;;;;20.60;12.32;;;;;;;;;;2085362;28;20142;-76
2023/12/13 06:32:14;;;;;;;16.85;10.40;;;;;;;;;;2086164;28;20091;-75
2023/12/13 06:33:35;;;;;;;22.05;9.75;;;;;;;;;;2086549;28;20033;-76
2023/12/13 06:34:56;;;;;;;27.80;11.38;;;;;;;;;;2076125;28;20068;-75
2023/12/13 06:36:16;;;;;;;27.00;10.07;;;;;;;;;;2082745;28;20037;-75
2023/12/13 06:37:37;;;;;;;21.60;8.75;;;;;;;;;;2086554;28;20546;-75
2023/12/13 06:39:00;;;;;;;22.92;9.80;;;;;;;;;;2075887;28;20087;-74
2023/12/13 06:40:21;;;;;;;25.75;11.27;;;;;;;;;;2074704;28;20781;-74
2023/12/13 06:41:42;;;;;;;20.70;8.30;;;;;;;;;;2076358;28;20350;-75
2023/12/13 06:43:03;;;;;;;17.60;8.60;;;;;;;;;;2083941;28;20036;-74
2023/12/13 06:44:24;;;;;;;19.08;9.50;;;;;;;;;;2091427;28;20035;-74
2023/12/13 06:45:45;;;;;;;18.23;9.73;;;;;;;;;;2086826;28;20416;-75
2023/12/13 06:47:06;;;;;;;26.33;10.10;;;;;;;;;;2086082;28;20033;-74
2023/12/13 06:48:28;;;;;;;24.42;9.77;;;;;;;;;;2080585;28;20034;-74
2023/12/13 06:49:49;;;;;;;15.10;8.65;;;;;;;;;;2087744;28;20037;-75
2023/12/13 06:51:10;;;;;;;21.17;9.93;;;;;;;;;;2080030;28;20026;-75
2023/12/13 06:52:30;;;;;;;21.40;10.18;;;;;;;;;;2086974;28;20362;-75
2023/12/13 06:53:51;;;;;;;17.92;9.60;;;;;;;;;;2079082;28;20026;-76
2023/12/13 06:55:13;;;;;;;25.45;9.85;;;;;;;;;;2080638;28;20037;-75
2023/12/13 06:56:34;;;;;;;27.00;10.50;;;;;;;;;;2080458;28;20568;-75
2023/12/13 06:57:55;;;;;;;19.13;9.65;;;;;;;;;;2086429;28;20036;-76
2023/12/13 06:59:16;;;;;;;32.28;10.48;;;;;;;;;;2094971;28;20043;-76
2023/12/13 07:00:37;;;;;;;20.05;9.70;;;;;;;;;;2088036;28;20041;-75
2023/12/13 07:01:58;;;;;;;26.55;10.45;;;;;;;;;;2084077;28;20509;-75
2023/12/13 07:03:20;;;;;;;22.75;10.23;;;;;;;;;;2085960;28;20037;-74
2023/12/13 07:04:42;;;;;;;21.58;9.00;;;;;;;;;;2087508;28;20029;-74
2023/12/13 07:06:03;;;;;;;18.60;10.10;;;;;;;;;;2081775;28;20104;-74
2023/12/13 07:07:25;;;;;;;22.88;9.88;;;;;;;;;;2086564;28;20040;-74
2023/12/13 07:08:46;;;;;;;21.75;9.55;;;;;;;;;;2078932;28;20105;-76
2023/12/13 07:10:07;;;;;;;31.70;11.38;;;;;;;;;;2078302;28;20037;-76
2023/12/13 07:11:28;;;;;;;23.67;10.05;;;;;;;;;;2088599;28;20029;-75
2023/12/13 07:12:49;;;;;;;33.42;10.82;;;;;;;;;;2086690;28;20051;-75
2023/12/13 07:14:10;;;;;;;22.10;9.98;;;;;;;;;;2086707;28;20028;-75
2023/12/13 07:15:31;;;;;;;21.02;9.70;;;;;;;;;;2094852;28;20169;-77
2023/12/13 07:16:52;;;;;;;22.30;10.30;;;;;;;;;;2091641;28;20460;-76
2023/12/13 07:18:13;;;;;;;26.25;10.18;;;;;;;;;;2089760;28;20119;-77
2023/12/13 07:19:34;;;;;;;21.88;8.90;;;;;;;;;;2072564;28;20030;-76
2023/12/13 07:20:55;;;;;;;17.73;9.45;;;;;;;;;;2075318;28;20030;-77
2023/12/13 07:22:18;;;;;;;22.83;10.18;;;;;;;;;;2093884;28;20044;-77
2023/12/13 07:23:40;;;;;;;23.88;10.07;;;;;;;;;;2089041;28;20431;-76
2023/12/13 07:25:01;;;;;;;25.55;9.82;;;;;;;;;;2080980;28;20026;-75
2023/12/13 07:26:22;;;;;;;28.00;10.55;;;;;;;;;;2079044;28;20037;-75
2023/12/13 07:27:43;;;;;;;20.75;10.52;;;;;;;;;;2081992;28;20036;-76
2023/12/13 07:29:04;;;;;;;23.42;9.93;;;;;;;;;;2073855;28;20049;-76
2023/12/13 07:30:25;;;;;;;26.13;9.18;;;;;;;;;;2078389;28;20508;-76
2023/12/13 07:31:46;;;;;;;20.00;9.68;;;;;;;;;;2083280;28;20034;-77
2023/12/13 07:33:09;;;;;;;20.83;10.35;;;;;;;;;;2080728;28;20041;-76
2023/12/13 07:34:30;;;;;;;22.17;10.57;;;;;;;;;;2086873;28;20025;-75
2023/12/13 07:35:51;;;;;;;21.08;10.55;;;;;;;;;;2078121;28;20163;-75
2023/12/13 07:37:12;;;;;;;27.77;10.93;;;;;;;;;;2086801;28;20493;-74
2023/12/13 07:38:33;;;;;;;26.92;10.30;;;;;;;;;;2086370;28;20029;-75
2023/12/13 07:39:54;;;;;;;19.77;9.85;;;;;;;;;;2080253;28;20095;-76
2023/12/13 07:41:16;;;;;;;27.92;11.38;;;;;;;;;;2080072;28;20025;-74
2023/12/13 07:42:36;;;;;;;27.35;11.38;;;;;;;;;;2075000;28;20034;-75
2023/12/13 07:43:57;;;;;;;22.00;10.65;;;;;;;;;;2071446;28;20414;-74
2023/12/13 07:45:20;;;;;;;27.33;11.10;;;;;;;;;;2073701;28;20029;-74
2023/12/13 07:46:41;;;;;;;19.90;10.38;;;;;;;;;;2087040;28;20033;-74
2023/12/13 07:48:03;;;;;;;23.90;10.52;;;;;;;;;;2090386;28;20033;-75
2023/12/13 07:49:24;;;;;;;22.73;10.30;;;;;;;;;;2089141;28;20029;-75
2023/12/13 07:50:44;;;;;;;24.15;10.30;;;;;;;;;;2081537;28;20036;-74
2023/12/13 07:52:06;;;;;;;22.50;10.27;;;;;;;;;;2086778;28;20135;-75
2023/12/13 07:53:27;;;;;;;25.92;10.60;;;;;;;;;;2081883;28;20056;-74
2023/12/13 07:54:48;;;;;;;21.83;10.68;;;;;;;;;;2083339;28;20036;-75
2023/12/13 07:56:09;;;;;;;24.95;10.85;;;;;;;;;;2090001;28;20032;-75
2023/12/13 07:57:30;;;;;;;26.65;11.55;;;;;;;;;;2090297;28;20025;-76